Time;durP1;ratioP1;P1;durP2;ratioP2;P2;SDS_P1;SDS_P2;PMS_P1;PMS_P2;Temp;Humidity;BMP_temperature;BMP_pressure;BME280_temperature;BME280_humidity;BME280_pressure;Samples;Min_cycle;Max_cycle;Signal;HPM_P1;HPM_P2
2021/07/22 00:00:12;;;;;;;0.20;0.20;;;;;;;12.53;89.37;101698.75;5045280;28;20050;-92
2021/07/22 00:02:40;;;;;;;0.20;0.20;;;;;;;12.46;90.15;101687.25;5042023;28;20068;-92
2021/07/22 00:05:45;;;;;;;0.20;0.20;;;;;;;12.54;90.74;101692.19;5034656;28;20052;-92
2021/07/22 00:08:18;;;;;;;0.10;0.10;;;;;;;12.51;90.39;101696.28;5037317;28;20513;-92
2021/07/22 00:10:51;;;;;;;0.10;0.10;;;;;;;12.59;90.31;101694.94;5057367;28;20391;-91
2021/07/22 00:13:19;;;;;;;0.10;0.10;;;;;;;12.55;90.19;101691.09;5048459;28;20053;-94
2021/07/22 00:15:52;;;;;;;0.10;0.10;;;;;;;12.50;90.18;101658.34;5042145;28;20044;-93
2021/07/22 00:18:20;;;;;;;0.13;0.13;;;;;;;12.58;89.91;101657.78;5039646;28;20375;-93
2021/07/22 00:20:50;;;;;;;0.10;0.10;;;;;;;12.65;89.99;101676.66;5044813;28;20049;-91
2021/07/22 00:23:19;;;;;;;0.20;0.20;;;;;;;12.55;89.55;101650.13;5036186;28;20045;-93
2021/07/22 00:25:47;;;;;;;0.20;0.20;;;;;;;12.58;89.25;101661.34;5034115;28;20054;-91
2021/07/22 00:28:15;;;;;;;0.10;0.10;;;;;;;12.57;88.88;101645.25;5042179;28;20948;-92
2021/07/22 00:30:44;;;;;;;0.20;0.20;;;;;;;12.60;89.67;101663.81;5048369;28;20053;-91
2021/07/22 00:33:14;;;;;;;0.10;0.10;;;;;;;12.57;89.10;101656.16;5033804;28;20045;-92
2021/07/22 00:35:42;;;;;;;0.10;0.10;;;;;;;12.82;88.44;101677.25;5044565;28;20049;-92
2021/07/22 00:38:20;;;;;;;0.10;0.10;;;;;;;12.82;87.65;101666.31;5045822;28;20045;-93
2021/07/22 00:40:54;;;;;;;0.10;0.10;;;;;;;12.78;88.17;101661.66;5042432;28;20068;-92
2021/07/22 00:43:28;;;;;;;0.10;0.10;;;;;;;12.96;87.94;101679.47;5037955;28;20076;-93
2021/07/22 00:46:02;;;;;;;0.20;0.20;;;;;;;12.80;88.01;101643.09;5033619;28;20049;-93
2021/07/22 00:48:30;;;;;;;0.20;0.20;;;;;;;12.86;88.07;101672.88;5034071;28;20069;-93
2021/07/22 00:51:13;;;;;;;0.10;0.10;;;;;;;12.89;87.93;101679.72;5050754;28;20513;-91
2021/07/22 00:53:45;;;;;;;0.10;0.10;;;;;;;12.69;87.58;101644.97;5057329;28;20746;-92
2021/07/22 00:56:23;;;;;;;0.10;0.10;;;;;;;12.91;87.88;101667.44;5033577;28;20443;-92
2021/07/22 00:58:52;;;;;;;0.10;0.10;;;;;;;12.85;87.69;101662.22;5037864;28;20060;-92
2021/07/22 01:01:22;;;;;;;0.10;0.10;;;;;;;12.93;88.45;101669.88;5052890;28;20057;-93
2021/07/22 01:03:56;;;;;;;0.13;0.13;;;;;;;12.75;87.87;101630.25;5050306;28;20045;-92
2021/07/22 01:06:29;;;;;;;0.10;0.10;;;;;;;13.01;88.03;101676.72;5034495;28;20053;-92
2021/07/22 01:09:00;;;;;;;0.20;0.20;;;;;;;12.82;87.48;101652.66;5040948;28;20052;-92
2021/07/22 01:11:40;;;;;;;0.10;0.10;;;;;;;12.79;87.25;101645.00;5047450;28;20049;-93
2021/07/22 01:14:08;;;;;;;0.10;0.10;;;;;;;12.99;86.55;101673.44;5037160;28;20686;-91
2021/07/22 01:16:44;;;;;;;0.20;0.20;;;;;;;13.02;87.29;101660.06;5032608;28;20053;-92
2021/07/22 01:19:13;;;;;;;0.10;0.10;;;;;;;12.78;85.63;101624.25;5042838;28;20063;-92
2021/07/22 01:21:46;;;;;;;0.17;0.17;;;;;;;13.07;86.48;101679.19;5044674;28;20422;-92
2021/07/22 01:24:19;;;;;;;0.20;0.20;;;;;;;12.92;84.86;101646.38;5036412;28;20075;-92
2021/07/22 01:27:00;;;;;;;0.20;0.20;;;;;;;12.98;86.52;101649.94;5040799;28;20057;-92
2021/07/22 01:29:40;;;;;;;0.20;0.20;;;;;;;13.17;85.62;101677.56;5033278;28;20068;-92
2021/07/22 01:32:14;;;;;;;0.10;0.10;;;;;;;12.98;86.13;101664.44;5047311;28;20053;-92
2021/07/22 01:34:47;;;;;;;0.13;0.13;;;;;;;12.89;87.07;101636.00;5039827;28;20049;-90
2021/07/22 01:37:25;;;;;;;0.10;0.10;;;;;;;12.68;86.84;101597.75;5044529;28;20068;-93
2021/07/22 01:39:55;;;;;;;0.10;0.10;;;;;;;13.02;86.75;101664.69;5038162;28;21556;-88
2021/07/22 01:42:36;;;;;;;0.10;0.10;;;;;;;13.09;88.17;101671.53;5042570;28;20049;-92
2021/07/22 01:45:07;;;;;;;0.17;0.17;;;;;;;12.96;86.65;101641.22;5046156;28;20050;-91
2021/07/22 01:47:42;;;;;;;0.20;0.20;;;;;;;13.06;88.12;101663.91;5032005;28;20405;-92
2021/07/22 01:51:08;;;;;;;0.10;0.10;;;;;;;13.04;87.77;101668.78;5041220;28;20546;-92
2021/07/22 01:53:50;;;;;;;0.20;0.20;;;;;;;12.93;87.69;101657.03;5044711;28;20063;-92
2021/07/22 01:56:24;;;;;;;0.17;0.17;;;;;;;12.87;87.19;101652.66;5040657;28;20041;-91
2021/07/22 01:58:58;;;;;;;0.17;0.17;;;;;;;12.89;87.46;101666.06;5037560;28;20057;-91
2021/07/22 02:01:32;;;;;;;0.20;0.20;;;;;;;12.83;89.05;101667.13;5032171;28;20045;-91
2021/07/22 02:04:23;;;;;;;0.10;0.10;;;;;;;12.61;89.09;101637.31;5032618;28;20506;-92
2021/07/22 02:06:58;;;;;;;0.10;0.10;;;;;;;12.76;88.02;101659.22;5039153;28;20045;-92
2021/07/22 02:09:29;;;;;;;0.13;0.13;;;;;;;12.77;88.67;101666.28;5039688;28;20405;-92
2021/07/22 02:12:01;;;;;;;0.20;0.20;;;;;;;12.76;87.72;101672.88;5033112;28;20037;-92
2021/07/22 02:14:29;;;;;;;0.10;0.10;;;;;;;12.64;87.97;101659.44;5033394;28;20041;-92
2021/07/22 02:17:04;;;;;;;0.10;0.10;;;;;;;12.67;87.61;101666.28;5042332;28;20049;-91
2021/07/22 02:19:34;;;;;;;0.10;0.10;;;;;;;12.58;87.59;101661.34;5039311;28;20053;-92
2021/07/22 02:22:13;;;;;;;0.10;0.10;;;;;;;12.44;87.81;101660.22;5045814;28;20058;-91
2021/07/22 02:24:50;;;;;;;0.15;0.15;;;;;;;12.18;87.75;101630.13;5036645;28;20049;-92
2021/07/22 02:27:35;;;;;;;0.20;0.20;;;;;;;12.26;88.42;101669.69;5035070;28;20049;-92
2021/07/22 02:30:12;;;;;;;0.10;0.10;;;;;;;11.91;88.48;101625.59;5040062;28;20060;-91
2021/07/22 02:32:46;;;;;;;0.10;0.10;;;;;;;11.80;88.63;101620.38;5044637;28;20050;-92
2021/07/22 02:35:20;;;;;;;0.10;0.10;;;;;;;11.76;89.04;101630.16;5033538;28;20049;-92
2021/07/22 02:39:03;;;;;;;0.10;0.10;;;;;;;11.95;88.50;101664.13;5046635;28;20052;-92
2021/07/22 02:41:34;;;;;;;0.10;0.10;;;;;;;11.57;88.88;101616.94;5049196;28;20068;-92
2021/07/22 02:44:05;;;;;;;0.10;0.10;;;;;;;11.84;88.66;101665.13;5041366;28;20046;-91
2021/07/22 02:46:40;;;;;;;0.10;0.10;;;;;;;11.51;88.93;101627.00;5032681;28;20037;-93
2021/07/22 02:49:10;;;;;;;0.10;0.10;;;;;;;11.76;89.33;101655.50;5032050;28;20128;-92
2021/07/22 02:51:38;;;;;;;0.10;0.10;;;;;;;11.78;89.37;101667.00;5031975;28;20050;-92
2021/07/22 02:54:12;;;;;;;0.17;0.17;;;;;;;11.52;89.47;101641.47;5046928;28;20058;-92
2021/07/22 02:56:43;;;;;;;0.20;0.20;;;;;;;11.35;89.60;101626.09;5048902;28;20398;-92
2021/07/22 02:59:19;;;;;;;0.10;0.10;;;;;;;11.56;90.03;101662.50;5049254;28;20044;-91
2021/07/22 03:01:49;;;;;;;0.13;0.13;;;;;;;11.52;89.97;101658.63;5042617;28;20057;-92
2021/07/22 03:04:21;;;;;;;0.10;0.10;;;;;;;11.29;90.10;101629.03;5037244;28;20042;-92
2021/07/22 03:07:01;;;;;;;0.13;0.13;;;;;;;11.48;89.31;101660.25;5050427;28;20068;-92
2021/07/22 03:09:35;;;;;;;0.10;0.10;;;;;;;11.47;89.61;101668.69;5035956;28;20049;-93
2021/07/22 03:12:25;;;;;;;0.20;0.20;;;;;;;11.38;89.94;101665.63;5048906;28;20053;-92
2021/07/22 03:14:58;;;;;;;0.17;0.17;;;;;;;11.34;90.23;101672.69;5036345;28;20793;-92
2021/07/22 03:17:35;;;;;;;;;;;;;;;11.25;90.50;101671.53;5048733;28;20045;-92
2021/07/22 03:20:05;;;;;;;0.10;0.10;;;;;;;10.80;91.00;101611.75;5048945;28;19925;-92
2021/07/22 03:22:47;;;;;;;0.15;0.15;;;;;;;10.96;90.98;101639.94;5039906;28;20049;-92
2021/07/22 03:25:29;;;;;;;0.20;0.20;;;;;;;11.08;91.07;101666.22;5049227;28;20099;-93
2021/07/22 03:28:27;;;;;;;0.20;0.20;;;;;;;10.77;91.12;101620.47;5038956;28;20789;-91
2021/07/22 03:31:06;;;;;;;0.20;0.20;;;;;;;11.03;91.25;101666.97;5036578;28;20532;-94
2021/07/22 03:33:49;;;;;;;0.20;0.20;;;;;;;10.98;91.31;101664.19;5036648;28;20041;-92
2021/07/22 03:37:18;;;;;;;0.30;0.20;;;;;;;11.03;91.07;101667.81;5049317;28;20045;-92
2021/07/22 03:39:53;;;;;;;0.10;0.10;;;;;;;11.00;91.66;101670.22;5035713;28;20800;-92
2021/07/22 03:42:29;;;;;;;0.20;0.20;;;;;;;10.83;91.48;101649.38;5042002;28;20054;-93
2021/07/22 03:45:28;;;;;;;0.20;0.20;;;;;;;11.03;91.21;101672.41;5042959;28;20053;-92
2021/07/22 03:48:01;;;;;;;0.10;0.10;;;;;;;10.79;91.52;101636.53;5035269;28;20046;-92
2021/07/22 03:50:31;;;;;;;0.13;0.13;;;;;;;10.66;91.60;101624.97;5047763;28;20053;-93
2021/07/22 03:53:04;;;;;;;0.20;0.20;;;;;;;11.06;91.11;101671.88;5044322;28;20049;-92
2021/07/22 03:55:33;;;;;;;0.13;0.13;;;;;;;11.09;91.04;101682.28;5039254;28;20076;-92
2021/07/22 03:58:21;;;;;;;0.20;0.20;;;;;;;11.14;90.90;101676.88;5053325;28;20071;-92
2021/07/22 04:01:02;;;;;;;0.20;0.20;;;;;;;11.21;91.40;101682.09;5039949;28;20050;-92
2021/07/22 04:03:38;;;;;;;0.20;0.20;;;;;;;11.32;92.00;101688.47;5046345;28;20045;-92
2021/07/22 04:06:10;;;;;;;0.10;0.10;;;;;;;11.00;92.36;101623.91;5044969;28;20052;-91
2021/07/22 04:09:36;;;;;;;0.20;0.20;;;;;;;11.55;92.11;101684.56;5040982;28;20053;-93
2021/07/22 04:12:23;;;;;;;0.20;0.20;;;;;;;11.63;91.66;101677.78;5035884;28;20057;-90
2021/07/22 04:15:10;;;;;;;0.20;0.20;;;;;;;11.75;91.53;101681.13;5038263;28;20053;-92
2021/07/22 04:17:59;;;;;;;0.20;0.20;;;;;;;11.90;90.39;101688.59;5049613;28;20056;-91
2021/07/22 04:20:28;;;;;;;0.10;0.10;;;;;;;11.86;89.99;101658.31;5044248;28;20045;-92
2021/07/22 04:23:01;;;;;;;0.10;0.10;;;;;;;11.87;90.94;101651.75;5038090;28;20053;-93
2021/07/22 04:26:05;;;;;;;0.10;0.10;;;;;;;12.14;90.01;101683.59;5037145;28;20556;-91
2021/07/22 04:28:44;;;;;;;0.13;0.13;;;;;;;12.23;90.05;101689.34;5040781;28;20053;-92
2021/07/22 04:31:18;;;;;;;0.10;0.10;;;;;;;12.30;90.58;101691.84;5034571;28;20041;-90
2021/07/22 04:34:05;;;;;;;0.15;0.15;;;;;;;12.31;89.66;101669.72;5036235;28;20049;-91
2021/07/22 04:36:49;;;;;;;0.10;0.10;;;;;;;12.35;90.11;101672.75;5054486;28;20049;-92
2021/07/22 04:39:38;;;;;;;0.10;0.10;;;;;;;12.49;89.53;101673.88;5048206;28;20064;-92
2021/07/22 04:42:22;;;;;;;0.17;0.17;;;;;;;12.39;90.76;101641.09;5036188;28;20416;-92
2021/07/22 04:45:03;;;;;;;0.20;0.20;;;;;;;12.55;90.05;101663.78;5050789;28;20045;-89
2021/07/22 04:48:07;;;;;;;0.10;0.10;;;;;;;12.66;89.96;101672.84;5073328;28;20045;-92
2021/07/22 04:50:49;;;;;;;0.10;0.10;;;;;;;12.53;88.22;101650.41;5045810;28;20578;-92
2021/07/22 04:53:25;;;;;;;0.20;0.20;;;;;;;12.80;88.35;101678.59;5039950;28;20064;-93
2021/07/22 04:55:58;;;;;;;0.10;0.10;;;;;;;12.87;87.44;101676.41;5041193;28;20052;-92
2021/07/22 04:58:35;;;;;;;0.20;0.20;;;;;;;12.91;87.31;101674.78;5037350;28;20049;-92
2021/07/22 05:01:18;;;;;;;0.10;0.10;;;;;;;12.98;86.84;101674.53;5035372;28;20053;-91
2021/07/22 05:03:52;;;;;;;0.13;0.13;;;;;;;12.99;86.92;101666.06;5048498;28;20057;-92
2021/07/22 05:06:38;;;;;;;0.10;0.10;;;;;;;13.08;86.11;101669.09;5033153;28;20045;-93
2021/07/22 05:09:31;;;;;;;0.10;0.10;;;;;;;12.99;87.82;101649.66;5041278;28;20068;-93
2021/07/22 05:12:18;;;;;;;0.10;0.10;;;;;;;13.15;86.99;101669.63;5047039;28;20055;-91
2021/07/22 05:15:19;;;;;;;0.20;0.20;;;;;;;13.16;85.27;101679.47;5037120;28;20050;-92
2021/07/22 05:18:08;;;;;;;0.13;0.13;;;;;;;13.06;85.66;101654.84;5033818;28;20436;-92
2021/07/22 05:21:07;;;;;;;0.10;0.10;;;;;;;13.28;86.51;101684.66;5032181;28;20048;-92
2021/07/22 05:24:09;;;;;;;0.10;0.10;;;;;;;13.21;86.82;101665.78;5033124;28;20056;-92
2021/07/22 05:26:52;;;;;;;0.20;0.20;;;;;;;13.23;85.83;101646.38;5046122;28;20050;-93
2021/07/22 05:29:39;;;;;;;0.10;0.10;;;;;;;13.44;85.89;101667.19;5046044;28;20060;-92
2021/07/22 05:32:29;;;;;;;0.10;0.10;;;;;;;13.47;85.35;101660.34;5044494;28;20053;-88
2021/07/22 05:35:02;;;;;;;0.10;0.10;;;;;;;13.40;85.33;101633.28;5037306;28;20042;-92
2021/07/22 05:37:52;;;;;;;0.10;0.10;;;;;;;13.70;84.04;101669.06;5040227;28;20057;-91
2021/07/22 05:40:48;;;;;;;0.20;0.20;;;;;;;13.91;82.71;101670.66;5054453;28;20059;-92
2021/07/22 05:43:21;;;;;;;0.10;0.10;;;;;;;13.94;82.97;101659.13;5032252;28;20065;-92
2021/07/22 05:50:09;;;;;;;0.10;0.10;;;;;;;14.04;80.78;101644.59;5058034;28;20393;-92
2021/07/22 05:52:38;;;;;;;0.10;0.10;;;;;;;14.14;81.75;101665.66;5046937;28;20054;-93
2021/07/22 05:55:06;;;;;;;0.10;0.10;;;;;;;13.95;79.50;101641.63;5036823;28;20061;-93
2021/07/22 05:57:48;;;;;;;0.10;0.10;;;;;;;14.23;77.44;101671.38;5033166;28;20053;-92
2021/07/22 06:00:39;;;;;;;0.20;0.20;;;;;;;14.02;76.82;101637.78;5037947;28;20037;-93
2021/07/22 06:03:39;;;;;;;0.15;0.15;;;;;;;14.32;76.01;101672.44;5042919;28;20056;-92
2021/07/22 06:06:13;;;;;;;0.20;0.20;;;;;;;14.41;77.75;101665.25;5037236;28;20049;-92
2021/07/22 06:08:47;;;;;;;0.30;0.20;;;;;;;14.42;76.18;101666.09;5035809;28;20057;-92
2021/07/22 06:11:40;;;;;;;0.10;0.10;;;;;;;14.81;75.59;101673.56;5032359;28;20041;-91
2021/07/22 06:14:10;;;;;;;0.10;0.10;;;;;;;15.04;75.91;101662.97;5048844;28;20092;-93
2021/07/22 06:16:47;;;;;;;0.10;0.10;;;;;;;14.53;73.91;101664.09;5037570;28;20064;-93
2021/07/22 06:19:20;;;;;;;0.20;0.20;;;;;;;14.82;73.09;101627.78;5045989;28;20052;-91
2021/07/22 06:22:11;;;;;;;0.10;0.10;;;;;;;15.25;72.96;101669.13;5049127;28;20056;-91
2021/07/22 06:24:45;;;;;;;0.10;0.10;;;;;;;15.38;71.48;101656.66;5033623;28;20050;-90
2021/07/22 06:27:22;;;;;;;0.10;0.10;;;;;;;14.94;71.97;101656.47;5051471;28;20049;-92
2021/07/22 06:29:51;;;;;;;0.10;0.10;;;;;;;14.56;72.47;101620.53;5038220;28;20494;-92
2021/07/22 06:32:20;;;;;;;0.10;0.10;;;;;;;15.02;72.88;101649.53;5048789;28;20056;-91
2021/07/22 06:34:53;;;;;;;0.10;0.10;;;;;;;15.19;73.21;101662.88;5051586;28;20417;-90
2021/07/22 06:37:21;;;;;;;0.20;0.20;;;;;;;14.72;71.63;101631.41;5042549;28;20053;-91
2021/07/22 06:40:50;;;;;;;0.10;0.10;;;;;;;15.23;73.32;101672.16;5044964;28;20053;-91
2021/07/22 06:43:23;;;;;;;0.10;0.10;;;;;;;15.79;72.65;101665.31;5042617;28;20049;-90
2021/07/22 06:46:22;;;;;;;0.10;0.10;;;;;;;15.56;72.63;101664.16;5045035;28;20049;-93
2021/07/22 06:48:54;;;;;;;0.10;0.10;;;;;;;15.17;70.13;101667.00;5037872;28;20049;-92
2021/07/22 06:51:24;;;;;;;0.17;0.17;;;;;;;15.12;71.20;101637.69;5038811;28;20502;-91
2021/07/22 06:53:58;;;;;;;0.20;0.20;;;;;;;15.31;69.45;101654.25;5044043;28;20414;-92
2021/07/22 06:57:23;;;;;;;0.20;0.20;;;;;;;15.67;70.08;101666.81;5046654;28;20050;-94
2021/07/22 06:59:52;;;;;;;0.15;0.15;;;;;;;15.94;69.54;101667.09;5042183;28;20061;-89
2021/07/22 07:02:50;;;;;;;0.10;0.10;;;;;;;15.97;69.15;101666.50;5038063;28;20042;-90
2021/07/22 07:05:58;;;;;;;0.10;0.10;;;;;;;15.89;67.98;101663.59;5036311;28;20490;-91
2021/07/22 07:08:35;;;;;;;0.10;0.10;;;;;;;16.02;66.42;101643.66;5049817;28;20054;-90
2021/07/22 07:11:34;;;;;;;0.20;0.20;;;;;;;15.93;67.61;101659.16;5040751;28;20506;-90
2021/07/22 07:14:12;;;;;;;0.10;0.10;;;;;;;15.79;66.68;101668.06;5041226;28;20053;-89
2021/07/22 07:17:15;;;;;;;0.10;0.10;;;;;;;15.85;67.70;101660.59;5040329;28;20048;-89
2021/07/22 07:19:50;;;;;;;0.10;0.10;;;;;;;15.81;67.56;101654.88;5040046;28;20057;-89
2021/07/22 07:26:37;;;;;;;0.10;0.10;;;;;;;16.01;66.19;101660.44;5039319;28;20053;-89
2021/07/22 07:30:02;;;;;;;0.20;0.20;;;;;;;16.09;66.45;101663.34;5032958;28;20042;-88
2021/07/22 07:32:35;;;;;;;0.10;0.10;;;;;;;16.22;66.43;101661.81;5032906;28;20056;-91
2021/07/22 07:35:07;;;;;;;0.20;0.20;;;;;;;16.23;66.13;101666.19;5029959;28;20057;-89
2021/07/22 07:38:31;;;;;;;0.20;0.20;;;;;;;16.13;67.37;101658.09;5030976;28;20048;-89
2021/07/22 07:41:04;;;;;;;0.10;0.10;;;;;;;16.10;66.13;101655.91;5025688;28;20049;-90
2021/07/22 07:43:41;;;;;;;0.10;0.10;;;;;;;16.58;68.39;101657.75;5026077;28;20052;-90
2021/07/22 07:46:15;;;;;;;0.10;0.10;;;;;;;16.88;65.23;101662.00;5025270;28;20050;-89
2021/07/22 07:48:48;;;;;;;0.10;0.10;;;;;;;16.66;65.98;101648.84;5026524;28;20151;-89
2021/07/22 07:51:33;;;;;;;0.10;0.10;;;;;;;16.76;64.87;101654.19;5022104;28;20056;-86
2021/07/22 07:54:06;;;;;;;0.10;0.10;;;;;;;17.14;64.28;101653.38;5024855;28;20413;-88
2021/07/22 07:56:40;;;;;;;0.13;0.13;;;;;;;16.85;64.06;101662.59;5027162;28;20058;-89
2021/07/22 07:59:09;;;;;;;0.10;0.10;;;;;;;16.57;65.44;101662.47;5026488;28;20065;-90
2021/07/22 08:01:58;;;;;;;0.10;0.10;;;;;;;16.70;65.47;101658.13;5027825;28;20050;-88
2021/07/22 08:04:26;;;;;;;0.10;0.10;;;;;;;17.05;64.26;101660.66;5027693;28;20053;-88
2021/07/22 08:07:02;;;;;;;0.10;0.10;;;;;;;16.33;64.81;101662.50;5024438;28;20057;-88
2021/07/22 08:09:56;;;;;;;0.15;0.15;;;;;;;16.48;65.93;101656.78;5035161;28;20060;-88
2021/07/22 08:12:25;;;;;;;0.13;0.13;;;;;;;16.66;66.94;101655.16;5021593;28;20069;-88
2021/07/22 08:15:44;;;;;;;0.10;0.10;;;;;;;16.79;65.08;101661.84;5024889;28;20065;-88
2021/07/22 08:18:12;;;;;;;0.10;0.10;;;;;;;16.62;64.47;101623.88;5026938;28;20821;-88
2021/07/22 08:20:40;;;;;;;0.10;0.10;;;;;;;16.93;64.66;101658.38;5031209;28;20071;-88
2021/07/22 08:23:17;;;;;;;0.10;0.10;;;;;;;17.13;64.59;101654.47;5025824;28;20053;-89
2021/07/22 08:25:56;;;;;;;0.10;0.10;;;;;;;17.10;65.04;101655.09;5026969;28;21306;-88
2021/07/22 08:28:29;;;;;;;0.10;0.10;;;;;;;17.00;64.91;101653.31;5031778;28;20053;-87
2021/07/22 08:31:04;;;;;;;0.10;0.10;;;;;;;17.35;65.59;101656.59;5020640;28;20053;-88
2021/07/22 08:33:37;;;;;;;0.20;0.20;;;;;;;17.68;66.88;101651.84;5025169;28;20063;-88
2021/07/22 08:36:13;;;;;;;0.10;0.10;;;;;;;17.41;61.96;101644.34;5025635;28;20056;-88
2021/07/22 08:39:13;;;;;;;0.20;0.20;;;;;;;17.00;64.63;101656.06;5029424;28;20100;-88
2021/07/22 08:41:50;;;;;;;0.10;0.10;;;;;;;17.15;65.43;101655.81;5024595;28;20064;-88
2021/07/22 08:44:24;;;;;;;0.13;0.13;;;;;;;17.41;66.52;101652.59;5024632;28;20059;-88
2021/07/22 08:46:53;;;;;;;0.20;0.20;;;;;;;17.56;65.51;101642.47;5025136;28;20057;-88
2021/07/22 08:49:27;;;;;;;0.10;0.10;;;;;;;17.24;63.30;101613.88;5023436;28;20057;-88
2021/07/22 08:52:02;;;;;;;0.10;0.10;;;;;;;17.52;61.39;101645.00;5022085;28;20391;-88
2021/07/22 08:54:41;;;;;;;0.10;0.10;;;;;;;17.47;62.34;101612.09;5020084;28;20058;-88
2021/07/22 08:57:11;;;;;;;0.10;0.10;;;;;;;17.77;62.01;101640.97;5023256;28;20061;-88
2021/07/22 08:59:48;;;;;;;0.10;0.10;;;;;;;17.51;62.02;101633.19;5022211;28;20505;-86
2021/07/22 09:02:24;;;;;;;0.10;0.10;;;;;;;17.60;62.09;101629.72;5030927;28;20048;-89
2021/07/22 09:04:56;;;;;;;0.10;0.10;;;;;;;17.65;61.31;101618.63;5022420;28;20053;-89
2021/07/22 09:07:36;;;;;;;0.10;0.10;;;;;;;17.97;63.62;101630.69;5020159;28;20505;-88
2021/07/22 09:10:21;;;;;;;0.15;0.15;;;;;;;17.78;62.05;101630.75;5020188;28;20060;-88
2021/07/22 09:12:54;;;;;;;0.20;0.20;;;;;;;17.87;62.92;101626.16;5029465;28;20057;-89
2021/07/22 09:15:25;;;;;;;0.20;0.20;;;;;;;17.88;61.94;101594.72;5020864;28;20053;-88
2021/07/22 09:17:59;;;;;;;0.10;0.10;;;;;;;18.11;63.63;101630.66;5018797;28;20057;-87
2021/07/22 09:20:31;;;;;;;0.10;0.10;;;;;;;18.52;61.30;101618.75;5021162;28;20072;-87
2021/07/22 09:23:01;;;;;;;0.10;0.10;;;;;;;18.08;61.54;101629.34;5021920;28;20045;-88
2021/07/22 09:25:42;;;;;;;0.10;0.10;;;;;;;18.16;59.95;101628.63;5023725;28;20048;-88
2021/07/22 09:28:24;;;;;;;0.10;0.10;;;;;;;18.04;59.69;101622.81;5020496;28;20536;-88
2021/07/22 09:31:01;;;;;;;0.10;0.10;;;;;;;18.28;62.07;101621.75;5022119;28;20037;-88
2021/07/22 09:33:38;;;;;;;;;;;;;;;18.23;63.00;101627.38;5022668;28;20041;-88
2021/07/22 09:36:32;;;;;;;0.10;0.10;;;;;;;18.18;60.10;101629.09;5022771;28;19929;-89
2021/07/22 09:39:17;;;;;;;0.10;0.10;;;;;;;18.11;61.69;101633.41;5018889;28;20065;-88
2021/07/22 09:41:46;;;;;;;0.10;0.10;;;;;;;18.10;60.31;101599.53;5021402;28;20056;-88
2021/07/22 09:44:34;;;;;;;0.10;0.10;;;;;;;18.36;60.26;101632.03;5038275;28;20061;-89
2021/07/22 09:47:09;;;;;;;0.10;0.10;;;;;;;18.38;63.32;101634.50;5021117;28;20065;-88
2021/07/22 09:49:43;;;;;;;0.10;0.10;;;;;;;18.40;62.14;101635.00;5022368;28;20053;-89
2021/07/22 09:52:45;;;;;;;0.10;0.10;;;;;;;18.31;60.53;101632.97;5020457;28;20064;-89
2021/07/22 09:55:26;;;;;;;0.10;0.10;;;;;;;18.40;63.27;101626.75;5042065;28;20521;-87
2021/07/22 09:58:02;;;;;;;0.10;0.10;;;;;;;18.52;61.21;101619.56;5023658;28;20061;-89
2021/07/22 10:00:32;;;;;;;0.10;0.10;;;;;;;18.50;59.85;101632.81;5020773;28;20062;-88
2021/07/22 10:03:03;;;;;;;0.10;0.10;;;;;;;18.51;58.90;101623.44;5018298;28;20057;-88
2021/07/22 10:05:37;;;;;;;0.10;0.10;;;;;;;18.41;59.32;101620.91;5024596;28;20056;-88
2021/07/22 10:08:18;;;;;;;0.10;0.10;;;;;;;18.79;59.55;101625.28;5023643;28;20045;-89
2021/07/22 10:11:00;;;;;;;0.10;0.10;;;;;;;18.77;61.08;101627.53;5036799;28;20053;-88
2021/07/22 10:13:35;;;;;;;0.20;0.20;;;;;;;18.66;59.10;101622.25;5021106;28;20052;-89
2021/07/22 10:16:12;;;;;;;0.10;0.10;;;;;;;18.76;60.36;101623.16;5023522;28;20048;-89
2021/07/22 10:18:46;;;;;;;0.10;0.10;;;;;;;18.53;61.06;101620.34;5027479;28;20053;-88
2021/07/22 10:21:14;;;;;;;0.08;0.08;;;;;;;18.77;59.04;101589.75;5027547;28;20068;-88
2021/07/22 10:23:49;;;;;;;0.10;0.10;;;;;;;18.82;61.54;101622.72;5027350;28;20060;-88
2021/07/22 10:26:22;;;;;;;0.10;0.10;;;;;;;18.88;60.11;101622.59;5024622;28;20072;-88
2021/07/22 10:29:01;;;;;;;0.10;0.10;;;;;;;18.94;58.66;101615.84;5023251;28;20450;-88
2021/07/22 10:31:54;;;;;;;0.10;0.10;;;;;;;18.88;58.97;101608.81;5023554;28;20052;-88
2021/07/22 10:34:26;;;;;;;0.10;0.10;;;;;;;18.94;58.25;101602.06;5039518;28;20060;-88
2021/07/22 10:36:56;;;;;;;0.10;0.10;;;;;;;18.82;58.10;101602.59;5018959;28;20049;-88
2021/07/22 10:39:59;;;;;;;0.10;0.10;;;;;;;18.69;57.92;101607.03;5019096;28;20803;-88
2021/07/22 10:42:40;;;;;;;0.10;0.10;;;;;;;18.85;58.64;101604.72;5018495;28;20468;-88
2021/07/22 10:45:30;;;;;;;0.20;0.15;;;;;;;18.92;59.50;101609.81;5019132;28;20065;-88
2021/07/22 10:48:03;;;;;;;0.10;0.10;;;;;;;18.61;58.31;101574.69;5018569;28;20053;-88
2021/07/22 10:51:09;;;;;;;0.10;0.10;;;;;;;18.88;60.16;101603.31;5019371;28;20054;-88
2021/07/22 10:53:44;;;;;;;0.13;0.13;;;;;;;18.64;60.88;101587.84;5021779;28;20057;-89
2021/07/22 10:56:19;;;;;;;0.10;0.10;;;;;;;18.52;58.21;101605.78;5023210;28;20057;-88
2021/07/22 10:58:55;;;;;;;0.10;0.10;;;;;;;18.52;59.64;101604.97;5018601;28;20971;-88
2021/07/22 11:01:54;;;;;;;0.10;0.10;;;;;;;18.58;59.02;101608.41;5022494;28;20044;-88
2021/07/22 11:04:51;;;;;;;0.10;0.10;;;;;;;18.89;58.67;101608.50;5020406;28;20061;-89
2021/07/22 11:08:07;;;;;;;0.10;0.10;;;;;;;18.86;60.23;101606.34;5022706;28;20057;-87
2021/07/22 11:10:53;;;;;;;;;;;;;;;18.69;59.94;101602.31;5020673;28;20056;-88
2021/07/22 11:13:44;;;;;;;0.20;0.20;;;;;;;18.77;61.11;101605.50;5016909;28;19929;-88
2021/07/22 11:16:25;;;;;;;0.10;0.10;;;;;;;18.51;57.31;101576.56;5018796;28;20061;-89
2021/07/22 11:19:01;;;;;;;0.20;0.20;;;;;;;18.40;59.12;101571.63;5019821;28;20067;-88
2021/07/22 11:21:39;;;;;;;0.20;0.20;;;;;;;18.65;60.56;101590.28;5021775;28;20428;-87
2021/07/22 11:24:17;;;;;;;0.10;0.10;;;;;;;18.65;57.88;101592.25;5023396;28;20132;-88
2021/07/22 11:26:52;;;;;;;0.10;0.10;;;;;;;18.81;59.28;101592.69;5026354;28;20079;-88
2021/07/22 11:29:26;;;;;;;0.20;0.20;;;;;;;19.15;58.59;101585.78;5030588;28;20053;-88
2021/07/22 11:31:55;;;;;;;0.20;0.20;;;;;;;19.24;59.21;101591.34;5022314;28;20069;-88
2021/07/22 11:34:33;;;;;;;0.10;0.10;;;;;;;19.16;57.84;101566.16;5023435;28;20053;-89
2021/07/22 11:37:10;;;;;;;0.10;0.10;;;;;;;18.92;56.73;101561.00;5028336;28;20061;-88
2021/07/22 11:40:08;;;;;;;0.15;0.15;;;;;;;19.33;58.76;101597.72;5024070;28;20497;-88
2021/07/22 11:42:58;;;;;;;0.10;0.10;;;;;;;19.59;57.54;101594.28;5030593;28;20530;-89
2021/07/22 11:45:42;;;;;;;0.13;0.13;;;;;;;19.30;56.47;101587.34;5021647;28;20048;-88
2021/07/22 11:48:26;;;;;;;0.10;0.10;;;;;;;19.36;57.90;101586.88;5023611;28;20072;-90
2021/07/22 11:51:24;;;;;;;0.10;0.10;;;;;;;19.60;59.33;101582.91;5025963;28;20053;-88
2021/07/22 11:54:03;;;;;;;0.10;0.10;;;;;;;20.22;54.83;101578.38;5021199;28;20798;-88
2021/07/22 11:56:43;;;;;;;0.10;0.10;;;;;;;20.12;54.99;101573.16;5022175;28;20690;-87
2021/07/22 11:59:13;;;;;;;0.10;0.10;;;;;;;19.80;54.63;101570.47;5023407;28;20045;-88
2021/07/22 12:02:32;;;;;;;0.10;0.10;;;;;;;19.85;57.38;101573.09;5023974;28;20051;-89
2021/07/22 12:05:03;;;;;;;0.10;0.10;;;;;;;19.69;55.09;101574.66;5031361;28;20557;-89
2021/07/22 12:07:38;;;;;;;0.10;0.10;;;;;;;19.70;56.83;101559.72;5026350;28;20064;-88
2021/07/22 12:10:07;;;;;;;0.00;0.00;;;;;;;20.14;55.24;101557.06;5030338;28;20052;-88
2021/07/22 12:12:39;;;;;;;0.10;0.10;;;;;;;20.48;54.16;101555.44;5020023;28;20057;-87
2021/07/22 12:15:22;;;;;;;0.10;0.10;;;;;;;19.86;53.55;101543.56;5024770;28;20053;-87
2021/07/22 12:17:53;;;;;;;0.10;0.10;;;;;;;19.95;54.23;101551.84;5025831;28;20061;-89
2021/07/22 12:20:22;;;;;;;0.10;0.10;;;;;;;19.91;51.87;101540.63;5025351;28;20063;-88
2021/07/22 12:23:20;;;;;;;0.10;0.10;;;;;;;19.76;54.15;101547.41;5021648;28;20061;-88
2021/07/22 12:26:06;;;;;;;0.17;0.17;;;;;;;19.67;58.44;101541.84;5021359;28;20053;-88
2021/07/22 12:28:40;;;;;;;0.10;0.10;;;;;;;19.57;55.30;101546.84;5021605;28;20809;-88
2021/07/22 12:31:17;;;;;;;0.10;0.10;;;;;;;19.22;54.84;101549.47;5023780;28;20683;-88
2021/07/22 12:33:59;;;;;;;0.10;0.10;;;;;;;19.17;55.57;101542.16;5024533;28;20116;-87